Time;durP1;ratioP1;P1;durP2;ratioP2;P2;SDS_P1;SDS_P2;PMS_P1;PMS_P2;Temp;Humidity;BMP_temperature;BMP_pressure;BME280_temperature;BME280_humidity;BME280_pressure;Samples;Min_cycle;Max_cycle;Signal;HPM_P1;HPM_P2
2023/01/17 00:00:33;;;;;;;7.63;5.87;;;;;;;2.60;100.00;100396.63;5037393;28;20029;-74
2023/01/17 00:02:59;;;;;;;8.70;6.40;;;;;;;2.63;100.00;100391.16;5054762;28;20025;-72
2023/01/17 00:10:57;;;;;;;10.33;7.10;;;;;;;2.62;100.00;100406.09;5054532;28;20271;-72
2023/01/17 00:13:22;;;;;;;13.90;7.27;;;;;;;2.61;100.00;100403.59;5038524;28;20283;-71
2023/01/17 00:15:48;;;;;;;8.50;6.20;;;;;;;2.65;100.00;100416.38;5059070;28;20762;-75
2023/01/17 00:18:16;;;;;;;9.67;7.10;;;;;;;2.65;100.00;100410.28;5055104;28;20064;-75
2023/01/17 00:26:17;;;;;;;8.60;6.13;;;;;;;2.51;100.00;100398.19;5054404;28;20302;-76
2023/01/17 01:35:52;;;;;;;14.37;8.17;;;;;;;2.44;100.00;100455.66;5052208;28;20252;-75
2023/01/17 01:38:20;;;;;;;9.80;6.80;;;;;;;2.34;100.00;100448.63;5053156;28;20655;-73
2023/01/17 01:40:51;;;;;;;8.53;6.40;;;;;;;2.35;100.00;100456.38;5052797;28;20286;-74
2023/01/17 01:43:19;;;;;;;11.87;7.07;;;;;;;2.42;100.00;100468.09;5052822;28;20259;-75
2023/01/17 01:45:56;;;;;;;8.93;8.02;;;;;;;2.48;100.00;100466.78;5053775;28;20306;-75
2023/01/17 01:48:30;;;;;;;9.13;6.93;;;;;;;2.48;100.00;100472.03;5034506;28;20534;-75
2023/01/17 01:50:57;;;;;;;10.70;7.20;;;;;;;2.43;100.00;100464.50;5034637;28;20259;-76
2023/01/17 01:53:24;;;;;;;11.17;6.70;;;;;;;2.49;100.00;100471.91;5035915;28;20263;-74
2023/01/17 01:55:51;;;;;;;11.13;7.20;;;;;;;2.45;100.00;100461.75;5054435;28;20329;-76
2023/01/17 01:58:26;;;;;;;8.23;6.10;;;;;;;2.36;100.00;100458.06;5056990;28;20267;-72
2023/01/17 02:00:51;;;;;;;8.63;6.07;;;;;;;2.31;100.00;100457.53;5035788;28;20414;-74
2023/01/17 02:03:21;;;;;;;10.80;6.70;;;;;;;2.24;100.00;100452.88;5054161;28;20731;-74
2023/01/17 02:05:47;;;;;;;9.67;7.37;;;;;;;2.25;100.00;100463.28;5054505;28;20064;-74
2023/01/17 02:08:19;;;;;;;7.97;5.40;;;;;;;2.22;100.00;100458.25;5019494;28;20647;-73
2023/01/17 02:10:45;;;;;;;8.13;6.03;;;;;;;2.15;100.00;100459.69;5035354;28;20736;-76
2023/01/17 02:13:14;;;;;;;10.13;6.47;;;;;;;2.10;100.00;100467.91;5051994;28;20259;-74
2023/01/17 02:16:13;;;;;;;9.25;6.50;;;;;;;2.05;100.00;100462.19;5052217;28;20267;-73
2023/01/17 02:19:00;;;;;;;8.87;5.67;;;;;;;2.13;100.00;100467.69;5052391;28;20420;-75
2023/01/17 02:21:33;;;;;;;6.90;5.60;;;;;;;2.14;100.00;100461.47;5052923;28;20767;-75
2023/01/17 02:24:14;;;;;;;7.00;5.50;;;;;;;2.12;100.00;100473.06;5035019;28;20258;-76
2023/01/17 02:26:51;;;;;;;8.30;5.67;;;;;;;2.04;100.00;100475.44;5052614;28;20274;-74
2023/01/17 02:29:57;;;;;;;9.47;5.67;;;;;;;2.00;100.00;100482.66;5052618;28;20758;-76
2023/01/17 02:32:39;;;;;;;7.20;5.77;;;;;;;2.00;100.00;100479.22;5052251;28;20267;-76
2023/01/17 02:35:39;;;;;;;8.33;5.30;;;;;;;2.01;100.00;100475.63;5052989;28;20255;-76
2023/01/17 02:38:10;;;;;;;16.40;6.77;;;;;;;1.91;100.00;100475.50;5043151;28;20278;-72
2023/01/17 02:40:46;;;;;;;6.63;4.93;;;;;;;1.68;100.00;100465.84;5069778;28;20323;-75
2023/01/17 02:43:14;;;;;;;6.73;5.30;;;;;;;1.64;100.00;100480.16;5057769;28;20263;-75
2023/01/17 02:45:40;;;;;;;7.60;5.10;;;;;;;1.62;100.00;100482.03;5054750;28;20290;-75
2023/01/17 02:48:09;;;;;;;8.80;5.40;;;;;;;1.58;100.00;100475.34;5058205;28;20041;-76
2023/01/17 02:50:53;;;;;;;9.87;5.90;;;;;;;1.63;100.00;100484.56;5058733;28;20025;-74
2023/01/17 02:53:41;;;;;;;8.57;6.87;;;;;;;1.66;100.00;100488.75;5059050;28;20325;-73
2023/01/17 02:56:24;;;;;;;8.32;5.57;;;;;;;1.69;100.00;100489.34;5059681;28;20279;-74
2023/01/17 02:59:25;;;;;;;8.43;6.43;;;;;;;1.70;100.00;100490.19;5039585;28;20526;-74
2023/01/17 03:02:32;;;;;;;9.33;5.83;;;;;;;1.69;100.00;100475.38;5059734;28;20247;-72
2023/01/17 03:05:04;;;;;;;10.03;6.27;;;;;;;1.70;100.00;100470.03;5034270;28;20681;-75
2023/01/17 03:07:31;;;;;;;12.33;5.80;;;;;;;1.64;100.00;100465.22;5055612;28;20263;-75
2023/01/17 03:09:59;;;;;;;10.63;6.87;;;;;;;1.55;100.00;100450.16;5055633;28;20259;-76
2023/01/17 03:12:29;;;;;;;9.63;6.32;;;;;;;1.52;100.00;100458.28;5055641;28;20303;-75
2023/01/17 03:14:55;;;;;;;9.43;6.83;;;;;;;1.40;100.00;100443.41;5062447;28;20025;-73
2023/01/17 03:17:23;;;;;;;7.70;6.67;;;;;;;1.08;100.00;100406.38;5058301;28;20267;-73
2023/01/17 03:19:49;;;;;;;14.57;7.47;;;;;;;1.27;100.00;100456.59;5056190;28;20271;-72
2023/01/17 03:22:15;;;;;;;16.43;7.57;;;;;;;1.21;100.00;100459.66;5059172;28;20033;-73
2023/01/17 03:24:40;;;;;;;13.17;7.57;;;;;;;1.17;100.00;100453.78;5074898;28;20025;-74
2023/01/17 03:27:06;;;;;;;10.57;6.77;;;;;;;1.12;100.00;100463.75;5078997;28;20092;-73
2023/01/17 03:29:31;;;;;;;13.50;8.40;;;;;;;1.01;100.00;100449.75;5061965;28;20059;-74
2023/01/17 03:31:57;;;;;;;12.20;7.80;;;;;;;1.02;100.00;100467.16;5070540;28;20345;-74
2023/01/17 03:34:22;;;;;;;11.53;8.40;;;;;;;1.01;100.00;100475.97;5055826;28;20046;-74
2023/01/17 03:36:48;;;;;;;14.43;8.83;;;;;;;1.02;100.00;100482.88;5056231;28;20071;-73
2023/01/17 03:39:23;;;;;;;8.93;7.23;;;;;;;0.96;100.00;100478.91;5057194;28;20428;-76
2023/01/17 03:41:48;;;;;;;9.47;7.23;;;;;;;0.99;100.00;100478.69;5037295;28;20044;-74
2023/01/17 03:44:14;;;;;;;14.03;7.80;;;;;;;1.07;100.00;100486.84;5056165;28;20607;-75
2023/01/17 03:46:39;;;;;;;10.57;7.70;;;;;;;1.11;100.00;100479.59;5054891;28;20465;-74
2023/01/17 03:49:05;;;;;;;13.40;8.10;;;;;;;1.08;100.00;100472.78;5054694;28;20060;-74
2023/01/17 03:51:30;;;;;;;12.17;8.43;;;;;;;1.24;100.00;100493.53;5057256;28;20433;-76
2023/01/17 03:53:56;;;;;;;12.17;8.17;;;;;;;1.28;100.00;100494.16;5059121;28;20036;-74
2023/01/17 03:56:21;;;;;;;11.77;8.13;;;;;;;1.35;100.00;100487.50;5057975;28;20029;-74
2023/01/17 03:58:47;;;;;;;12.90;8.37;;;;;;;1.29;100.00;100474.84;5054859;28;20040;-74
2023/01/17 04:01:13;;;;;;;8.23;7.23;;;;;;;1.47;100.00;100492.72;5055711;28;20049;-75
2023/01/17 04:03:38;;;;;;;9.83;7.53;;;;;;;1.48;100.00;100496.19;5055533;28;20086;-73
2023/01/17 04:06:04;;;;;;;8.83;6.70;;;;;;;1.57;100.00;100486.81;5038189;28;20033;-73
2023/01/17 04:08:30;;;;;;;9.60;7.53;;;;;;;1.66;100.00;100488.75;5055620;28;20021;-74
2023/01/17 04:10:55;;;;;;;9.30;7.37;;;;;;;1.70;100.00;100500.69;5058186;28;20361;-74
2023/01/17 04:13:21;;;;;;;9.40;7.63;;;;;;;1.67;100.00;100487.78;5023423;28;20033;-72
2023/01/17 04:15:49;;;;;;;9.77;7.60;;;;;;;1.69;100.00;100489.34;5058049;28;20043;-71
2023/01/17 04:18:19;;;;;;;11.68;7.63;;;;;;;1.77;100.00;100494.06;5054590;28;20167;-73
2023/01/17 04:20:45;;;;;;;10.83;8.70;;;;;;;1.82;100.00;100495.41;5054166;28;20040;-73
2023/01/17 04:23:12;;;;;;;10.87;7.47;;;;;;;1.74;100.00;100483.78;5055185;28;20280;-76
2023/01/17 04:25:37;;;;;;;13.00;7.60;;;;;;;1.88;100.00;100493.25;5054292;28;20275;-73
2023/01/17 04:28:03;;;;;;;10.17;7.23;;;;;;;1.95;100.00;100495.31;5054630;28;20040;-71
2023/01/17 04:30:31;;;;;;;10.27;7.43;;;;;;;1.92;100.00;100500.78;5054357;28;20040;-71
2023/01/17 04:32:57;;;;;;;10.02;7.93;;;;;;;1.85;100.00;100495.16;5056000;28;20045;-79
2023/01/17 04:35:23;;;;;;;9.83;6.73;;;;;;;1.82;100.00;100495.41;5036206;28;20036;-74
2023/01/17 04:37:50;;;;;;;13.30;8.67;;;;;;;1.87;100.00;100497.69;5035907;28;20072;-75
2023/01/17 04:40:16;;;;;;;11.10;7.17;;;;;;;1.86;100.00;100496.84;5054837;28;20607;-70
2023/01/17 04:42:44;;;;;;;9.80;7.77;;;;;;;1.86;100.00;100496.84;5035697;28;20346;-72
2023/01/17 04:45:13;;;;;;;8.13;6.60;;;;;;;1.87;100.00;100500.31;5053694;28;20111;-72
2023/01/17 04:47:39;;;;;;;8.97;6.53;;;;;;;1.83;100.00;100496.22;5053423;28;20033;-77
2023/01/17 04:50:05;;;;;;;10.90;7.17;;;;;;;1.94;100.00;100519.91;5053801;28;20270;-76
2023/01/17 04:52:31;;;;;;;12.20;7.30;;;;;;;1.94;100.00;100519.06;5053887;28;20029;-77
2023/01/17 04:54:56;;;;;;;9.53;7.23;;;;;;;1.86;100.00;100522.25;5019476;28;20338;-78
2023/01/17 04:57:23;;;;;;;12.73;6.73;;;;;;;1.72;100.00;100514.53;5054520;28;20028;-77
2023/01/17 04:59:49;;;;;;;12.00;7.10;;;;;;;1.77;100.00;100522.94;5035503;28;20076;-77
2023/01/17 05:02:33;;;;;;;10.40;7.80;;;;;;;1.77;100.00;100517.69;5053231;28;20262;-82
2023/01/17 05:04:59;;;;;;;8.33;6.53;;;;;;;1.75;100.00;100516.97;5036880;28;20287;-75
2023/01/17 05:07:25;;;;;;;9.43;7.17;;;;;;;1.77;100.00;100522.94;5056736;28;20271;-75
2023/01/17 05:09:50;;;;;;;8.10;6.40;;;;;;;1.68;100.00;100507.84;5052482;28;20267;-76
2023/01/17 05:12:16;;;;;;;10.57;6.53;;;;;;;1.76;100.00;100530.00;5052989;28;20108;-75
2023/01/17 05:15:34;;;;;;;8.10;6.23;;;;;;;1.78;100.00;100535.13;5035374;28;20459;-78
2023/01/17 05:18:22;;;;;;;13.52;8.10;;;;;;;1.76;100.00;100529.16;5053655;28;20029;-76
2023/01/17 05:20:48;;;;;;;9.70;7.53;;;;;;;1.48;100.00;100475.19;5051626;28;20071;-73
2023/01/17 05:23:14;;;;;;;12.50;8.37;;;;;;;1.83;100.00;100533.00;5052974;28;20494;-74
2023/01/17 05:25:43;;;;;;;12.60;8.47;;;;;;;1.71;100.00;100513.69;5034283;28;20040;-75
2023/01/17 05:28:11;;;;;;;12.30;9.07;;;;;;;1.85;100.00;100538.97;5051722;28;20603;-73
2023/01/17 05:30:39;;;;;;;13.27;7.88;;;;;;;1.79;100.00;100531.53;5053177;28;20753;-73
2023/01/17 05:33:04;;;;;;;16.35;10.30;;;;;;;1.83;100.00;100543.50;5033671;28;20032;-76
2023/01/17 05:35:33;;;;;;;16.57;9.43;;;;;;;1.78;100.00;100529.88;5051776;28;20321;-75
2023/01/17 05:37:59;;;;;;;15.83;10.27;;;;;;;1.80;100.00;100538.47;5051756;28;20377;-78
2023/01/17 05:40:28;;;;;;;16.47;11.00;;;;;;;1.84;100.00;100543.38;5052625;28;20263;-73
2023/01/17 05:42:55;;;;;;;14.15;10.30;;;;;;;1.74;100.00;100533.69;5052908;28;20140;-75
2023/01/17 05:45:35;;;;;;;17.10;11.13;;;;;;;1.61;100.00;100525.00;5052600;28;20032;-82
2023/01/17 05:48:01;;;;;;;18.03;11.83;;;;;;;1.61;100.00;100533.72;5052581;28;20259;-73
2023/01/17 05:50:37;;;;;;;14.77;10.97;;;;;;;1.54;100.00;100549.06;5034792;28;20271;-73
2023/01/17 05:53:06;;;;;;;12.47;10.53;;;;;;;1.45;100.00;100543.66;5052788;28;20251;-71
2023/01/17 05:55:36;;;;;;;16.10;11.63;;;;;;;1.36;100.00;100542.50;5052629;28;20262;-75
2023/01/17 05:58:02;;;;;;;18.90;11.27;;;;;;;1.36;100.00;100549.53;5052404;28;20028;-74
2023/01/17 06:00:29;;;;;;;15.70;10.87;;;;;;;1.39;100.00;100550.16;5052733;28;20255;-73
2023/01/17 06:02:55;;;;;;;17.87;12.27;;;;;;;1.51;100.00;100561.56;5052535;28;20789;-74
2023/01/17 06:05:22;;;;;;;19.50;13.63;;;;;;;1.55;100.00;100547.28;5052409;28;20294;-76
2023/01/17 06:07:48;;;;;;;16.97;12.33;;;;;;;1.59;100.00;100546.09;5052564;28;20271;-74
2023/01/17 06:10:15;;;;;;;19.17;13.83;;;;;;;1.65;100.00;100552.69;5053496;28;20775;-74
2023/01/17 06:12:42;;;;;;;20.23;15.70;;;;;;;1.61;100.00;100548.63;5053935;28;20417;-73
2023/01/17 06:15:08;;;;;;;23.80;16.03;;;;;;;1.59;100.00;100558.41;5053819;28;20742;-72
2023/01/17 06:17:34;;;;;;;25.90;17.87;;;;;;;1.51;100.00;100559.78;5053936;28;20264;-72
2023/01/17 06:20:00;;;;;;;28.47;18.80;;;;;;;1.46;100.00;100551.41;5057004;28;20342;-75
2023/01/17 06:22:25;;;;;;;26.80;18.97;;;;;;;1.47;100.00;100563.59;5054173;28;20284;-77
2023/01/17 06:24:52;;;;;;;27.77;17.70;;;;;;;1.46;100.00;100561.06;5053256;28;20056;-76
2023/01/17 06:27:17;;;;;;;28.70;20.53;;;;;;;1.46;100.00;100563.69;5052738;28;20263;-75
2023/01/17 06:29:44;;;;;;;32.33;19.13;;;;;;;1.36;100.00;100560.88;5053012;28;20055;-76
2023/01/17 06:32:11;;;;;;;30.70;20.07;;;;;;;1.35;100.00;100564.44;5054294;28;20119;-77
2023/01/17 06:34:37;;;;;;;27.67;17.30;;;;;;;1.36;100.00;100560.88;5018590;28;20618;-74
2023/01/17 06:37:02;;;;;;;28.97;17.73;;;;;;;1.30;100.00;100539.47;5053300;28;20259;-77
2023/01/17 06:39:28;;;;;;;26.03;18.60;;;;;;;1.41;100.00;100565.78;5052656;28;20021;-74
2023/01/17 06:41:53;;;;;;;32.83;20.20;;;;;;;1.32;100.00;100554.16;5051796;28;20060;-75
2023/01/17 06:44:19;;;;;;;29.87;19.43;;;;;;;1.36;100.00;100563.50;5034024;28;20036;-74
2023/01/17 06:46:46;;;;;;;32.13;20.23;;;;;;;1.41;100.00;100564.00;5034069;28;20029;-75
2023/01/17 06:49:11;;;;;;;28.20;19.10;;;;;;;1.45;100.00;100562.03;5053079;28;20032;-74
2023/01/17 06:51:37;;;;;;;34.43;21.40;;;;;;;1.33;100.00;100532.22;5052401;28;20324;-76
2023/01/17 06:54:03;;;;;;;32.37;21.43;;;;;;;1.57;100.00;100576.03;5051854;28;20032;-75
2023/01/17 06:56:32;;;;;;;34.70;21.53;;;;;;;1.57;100.00;100573.41;5051774;28;20036;-73
2023/01/17 06:58:58;;;;;;;35.07;22.03;;;;;;;1.51;100.00;100574.69;5052488;28;20520;-76
2023/01/17 07:01:24;;;;;;;32.03;21.20;;;;;;;1.49;100.00;100572.19;5052109;28;20256;-76
2023/01/17 07:03:51;;;;;;;33.17;21.40;;;;;;;1.57;100.00;100582.13;5052313;28;20358;-74
2023/01/17 07:06:17;;;;;;;37.30;22.87;;;;;;;1.51;100.00;100570.28;5052086;28;20025;-75
2023/01/17 07:08:43;;;;;;;38.47;21.30;;;;;;;1.50;100.00;100575.66;5052304;28;20255;-75
2023/01/17 07:11:09;;;;;;;34.00;22.33;;;;;;;1.42;100.00;100575.31;5052168;28;20611;-75
2023/01/17 07:13:38;;;;;;;33.23;21.30;;;;;;;1.43;100.00;100577.00;5051892;28;20067;-76
2023/01/17 07:16:06;;;;;;;32.70;22.03;;;;;;;1.44;100.00;100583.94;5033954;28;20268;-74
2023/01/17 07:18:32;;;;;;;32.83;22.27;;;;;;;1.38;100.00;100574.72;5053422;28;20789;-74
2023/01/17 07:20:58;;;;;;;31.60;21.37;;;;;;;1.37;100.00;100578.28;5051775;28;20260;-74
2023/01/17 07:23:24;;;;;;;29.10;21.07;;;;;;;1.38;100.00;100579.97;5051157;28;20701;-75
2023/01/17 07:25:56;;;;;;;33.77;21.03;;;;;;;1.34;100.00;100586.38;5033425;28;20052;-74
2023/01/17 07:28:23;;;;;;;31.77;20.07;;;;;;;1.34;100.00;100594.25;5051153;28;20324;-75
2023/01/17 07:30:52;;;;;;;28.57;20.20;;;;;;;1.34;100.00;100596.03;5051390;28;20278;-74
2023/01/17 07:33:18;;;;;;;32.03;21.65;;;;;;;1.27;100.00;100592.16;5053540;28;20291;-74
2023/01/17 07:35:44;;;;;;;29.10;20.20;;;;;;;1.22;100.00;100588.09;5054974;28;20064;-75
2023/01/17 07:38:14;;;;;;;33.30;21.90;;;;;;;1.23;100.00;100567.94;5055216;28;20275;-76
2023/01/17 07:40:40;;;;;;;28.63;19.10;;;;;;;1.35;100.00;100574.94;5037652;28;20113;-75
2023/01/17 07:43:12;;;;;;;30.87;20.00;;;;;;;1.33;100.00;100573.38;5055710;28;20375;-73
2023/01/17 07:45:49;;;;;;;29.47;20.23;;;;;;;1.37;100.00;100583.53;5060625;28;20059;-73
2023/01/17 07:48:16;;;;;;;27.90;19.20;;;;;;;1.31;100.00;100573.47;5072978;28;20278;-74
2023/01/17 07:50:41;;;;;;;26.33;17.67;;;;;;;1.32;100.00;100577.78;5077185;28;20259;-73
2023/01/17 07:53:07;;;;;;;31.53;19.07;;;;;;;1.26;100.00;100567.72;5061266;28;20337;-72
2023/01/17 07:55:32;;;;;;;26.17;16.70;;;;;;;1.22;100.00;100574.97;5061825;28;20021;-75
2023/01/17 07:57:58;;;;;;;20.83;14.77;;;;;;;1.17;100.00;100576.25;5057502;28;20021;-76
2023/01/17 08:00:27;;;;;;;18.73;12.97;;;;;;;1.16;100.00;100585.06;5060269;28;20376;-76
2023/01/17 08:03:02;;;;;;;20.60;13.43;;;;;;;1.15;100.00;100581.56;5061410;28;20080;-75
2023/01/17 08:05:29;;;;;;;17.40;12.27;;;;;;;0.97;100.00;100550.56;5061179;28;20290;-76
2023/01/17 08:07:55;;;;;;;14.17;11.50;;;;;;;1.11;100.00;100584.50;5066255;28;20251;-76
2023/01/17 08:10:21;;;;;;;16.77;11.13;;;;;;;1.14;100.00;100582.50;5059682;28;20302;-75
2023/01/17 08:12:49;;;;;;;16.57;11.37;;;;;;;1.18;99.67;100584.00;5055158;28;20427;-74
2023/01/17 08:15:16;;;;;;;16.47;11.27;;;;;;;1.17;98.58;100582.31;5036444;28;20045;-74
2023/01/17 08:17:52;;;;;;;13.23;9.97;;;;;;;1.17;98.45;100589.34;5054190;28;20263;-75
2023/01/17 08:20:18;;;;;;;13.17;9.53;;;;;;;1.19;98.67;100587.47;5054080;28;20319;-75
2023/01/17 08:22:44;;;;;;;16.60;9.57;;;;;;;1.22;98.05;100587.25;5054180;28;20266;-74
2023/01/17 08:25:11;;;;;;;16.97;9.83;;;;;;;1.30;97.49;100587.53;5054347;28;20280;-74
2023/01/17 08:28:03;;;;;;;12.53;9.80;;;;;;;1.32;97.30;100587.44;5061611;28;20044;-73
2023/01/17 08:30:28;;;;;;;13.93;9.77;;;;;;;1.30;97.03;100576.22;5071589;28;20278;-70
2023/01/17 08:32:54;;;;;;;13.10;8.97;;;;;;;1.29;96.92;100570.13;5056091;28;20259;-74
2023/01/17 08:35:20;;;;;;;12.70;8.33;;;;;;;1.29;96.32;100572.75;5054927;28;20061;-75
2023/01/17 08:37:47;;;;;;;11.47;8.53;;;;;;;1.30;96.36;100586.69;5054498;28;20021;-75
2023/01/17 08:40:15;;;;;;;12.23;8.90;;;;;;;1.32;96.51;100574.31;5054017;28;20806;-75
2023/01/17 08:42:42;;;;;;;12.00;7.55;;;;;;;1.30;96.88;100571.78;5053960;28;20727;-75
2023/01/17 08:45:10;;;;;;;10.83;8.07;;;;;;;1.37;96.55;100565.16;5036569;28;20033;-76
2023/01/17 08:47:36;;;;;;;13.33;7.87;;;;;;;1.46;96.17;100569.78;5052771;28;20259;-74
2023/01/17 08:50:05;;;;;;;10.57;7.97;;;;;;;1.51;96.23;100566.81;5053689;28;20248;-74
2023/01/17 08:52:31;;;;;;;10.47;7.80;;;;;;;1.52;95.23;100566.72;5053338;28;20402;-75
2023/01/17 08:54:57;;;;;;;10.27;7.60;;;;;;;1.54;95.09;100558.72;5053500;28;20623;-75
2023/01/17 08:57:23;;;;;;;13.00;7.93;;;;;;;1.62;95.14;100571.28;5053136;28;20256;-73
2023/01/17 08:59:48;;;;;;;12.70;7.40;;;;;;;1.67;95.60;100566.53;5053247;28;20021;-75
2023/01/17 09:02:16;;;;;;;10.57;7.90;;;;;;;1.55;94.58;100548.13;5053417;28;20036;-74
2023/01/17 09:04:48;;;;;;;10.80;7.53;;;;;;;1.57;94.69;100562.91;5053252;28;20033;-73
2023/01/17 09:07:15;;;;;;;11.33;8.57;;;;;;;1.60;95.71;100573.19;5035336;28;20374;-74
2023/01/17 09:09:41;;;;;;;10.13;8.17;;;;;;;1.51;95.12;100575.53;5052997;28;20267;-74
2023/01/17 09:12:07;;;;;;;10.77;7.50;;;;;;;1.44;95.62;100569.03;5034937;28;20283;-73
2023/01/17 09:14:33;;;;;;;13.00;7.50;;;;;;;1.41;96.11;100571.88;5035352;28;20369;-76
2023/01/17 09:16:59;;;;;;;11.23;7.70;;;;;;;1.37;96.41;100562.53;5052978;28;20039;-74
2023/01/17 09:19:24;;;;;;;11.83;8.67;;;;;;;1.26;96.91;100559.00;5052831;28;20686;-72
2023/01/17 09:21:50;;;;;;;11.90;7.67;;;;;;;1.23;97.22;100552.19;5053021;28;20381;-74
2023/01/17 09:24:16;;;;;;;12.40;8.63;;;;;;;1.18;97.91;100551.69;5052477;28;20056;-75
2023/01/17 09:26:41;;;;;;;10.00;7.90;;;;;;;1.18;98.11;100549.06;5052239;28;20032;-75
2023/01/17 09:29:11;;;;;;;11.20;7.50;;;;;;;1.11;98.76;100539.94;5052333;28;20044;-73
2023/01/17 09:31:36;;;;;;;12.77;8.13;;;;;;;0.93;98.65;100540.28;5052187;28;20660;-74
2023/01/17 09:34:02;;;;;;;11.40;8.40;;;;;;;0.97;98.93;100537.44;5052368;28;20270;-75
2023/01/17 09:36:30;;;;;;;8.33;6.67;;;;;;;0.92;98.69;100530.75;5034406;28;20024;-74
2023/01/17 09:39:02;;;;;;;9.48;7.47;;;;;;;1.05;98.89;100541.19;5052396;28;20031;-74
2023/01/17 09:41:44;;;;;;;14.80;7.53;;;;;;;1.08;98.79;100529.66;5052569;28;20373;-75
2023/01/17 09:44:42;;;;;;;9.93;6.73;;;;;;;1.09;98.96;100541.81;5035076;28;20619;-74
2023/01/17 09:47:29;;;;;;;11.30;6.70;;;;;;;1.19;99.38;100541.09;5052286;28;20254;-73
2023/01/17 09:50:02;;;;;;;8.73;6.47;;;;;;;1.17;98.50;100537.72;5052540;28;20071;-74
2023/01/17 09:52:31;;;;;;;8.00;6.27;;;;;;;1.11;97.94;100526.81;5052973;28;20275;-77
2023/01/17 09:54:56;;;;;;;11.07;7.17;;;;;;;1.00;98.64;100530.19;5053006;28;20294;-74
2023/01/17 09:57:45;;;;;;;7.67;6.00;;;;;;;0.98;99.39;100536.50;5061265;28;20244;-75
2023/01/17 10:00:32;;;;;;;7.73;6.37;;;;;;;0.94;99.11;100520.13;5048052;28;20099;-76
2023/01/17 10:03:03;;;;;;;7.27;5.77;;;;;;;0.95;98.80;100529.69;5067726;28;20244;-75
2023/01/17 10:05:57;;;;;;;7.30;6.27;;;;;;;0.90;99.15;100526.56;5074361;28;20343;-74
2023/01/17 10:08:54;;;;;;;7.77;5.63;;;;;;;0.88;98.65;100529.28;5055423;28;20659;-74
2023/01/17 10:11:38;;;;;;;8.07;6.00;;;;;;;0.77;99.01;100500.31;5056770;28;20286;-73
2023/01/17 10:14:31;;;;;;;9.93;6.40;;;;;;;0.95;98.45;100520.97;5052877;28;20302;-76
2023/01/17 10:17:21;;;;;;;9.73;6.37;;;;;;;0.96;97.99;100520.03;5052636;28;20243;-75
2023/01/17 10:20:06;;;;;;;7.87;5.60;;;;;;;0.94;98.38;100512.28;5052536;28;20287;-74
2023/01/17 10:22:54;;;;;;;8.00;6.33;;;;;;;0.93;98.58;100510.59;5051907;28;20256;-74
2023/01/17 10:25:32;;;;;;;7.13;5.60;;;;;;;0.90;99.45;100513.44;5052484;28;20857;-77
2023/01/17 10:28:13;;;;;;;10.80;6.43;;;;;;;0.98;99.05;100512.91;5052419;28;20045;-78
2023/01/17 10:30:47;;;;;;;9.57;6.37;;;;;;;0.96;99.13;100501.69;5034623;28;20286;-75
2023/01/17 10:33:25;;;;;;;9.90;7.07;;;;;;;0.90;98.89;100498.53;5052308;28;20329;-73
2023/01/17 10:36:14;;;;;;;8.40;6.87;;;;;;;0.90;99.28;100505.56;5052110;28;20266;-75
2023/01/17 10:38:44;;;;;;;7.83;6.00;;;;;;;0.98;99.30;100503.25;5052413;28;20248;-74
2023/01/17 10:41:19;;;;;;;9.13;6.80;;;;;;;0.97;98.54;100495.50;5052167;28;20309;-75
2023/01/17 10:43:51;;;;;;;9.23;5.80;;;;;;;1.04;98.57;100509.84;5051815;28;20259;-76
2023/01/17 10:46:27;;;;;;;8.97;6.00;;;;;;;1.09;97.85;100510.34;5052439;28;20385;-76
2023/01/17 10:48:55;;;;;;;7.93;6.00;;;;;;;0.96;98.06;100510.38;5034109;28;20612;-74
2023/01/17 10:51:41;;;;;;;7.47;5.87;;;;;;;0.87;98.57;100506.63;5033921;28;20654;-76
2023/01/17 10:54:25;;;;;;;9.33;5.70;;;;;;;0.82;98.16;100518.34;5034081;28;20801;-73
2023/01/17 10:56:51;;;;;;;9.63;6.37;;;;;;;0.73;98.37;100511.97;5053914;28;20262;-78
2023/01/17 10:59:33;;;;;;;8.13;6.57;;;;;;;0.77;98.69;100510.81;5053418;28;20611;-79
2023/01/17 11:01:59;;;;;;;9.70;6.43;;;;;;;0.75;99.00;100496.13;5052537;28;20031;-79
2023/01/17 11:04:34;;;;;;;9.67;6.73;;;;;;;0.70;98.73;100490.38;5051460;28;20268;-77
2023/01/17 11:07:20;;;;;;;11.97;8.10;;;;;;;0.80;98.64;100492.25;5052084;28;20276;-72
2023/01/17 11:09:49;;;;;;;6.87;5.70;;;;;;;0.68;98.55;100473.94;5037977;28;20287;-75
2023/01/17 11:12:40;;;;;;;8.73;5.85;;;;;;;0.80;98.66;100491.41;5039678;28;20291;-77
2023/01/17 11:15:08;;;;;;;6.90;5.93;;;;;;;0.84;99.40;100495.50;5042880;28;20057;-76
2023/01/17 11:17:48;;;;;;;6.47;5.60;;;;;;;0.81;98.25;100479.97;5056136;28;20346;-77
2023/01/17 11:20:35;;;;;;;10.30;6.83;;;;;;;0.76;98.31;100488.16;5056041;28;20060;-78
2023/01/17 11:23:21;;;;;;;7.50;5.60;;;;;;;0.78;98.15;100481.03;5055867;28;20616;-77
2023/01/17 11:25:53;;;;;;;8.07;5.97;;;;;;;0.68;98.67;100461.66;5055871;28;20763;-77
2023/01/17 11:28:25;;;;;;;8.70;6.47;;;;;;;0.79;98.78;100466.97;5055597;28;20288;-77
2023/01/17 11:30:59;;;;;;;8.17;6.47;;;;;;;0.78;98.08;100453.97;5038561;28;20278;-77
2023/01/17 11:33:44;;;;;;;8.30;6.10;;;;;;;0.75;99.00;100464.69;5055341;28;20298;-76
2023/01/17 11:36:43;;;;;;;10.37;6.57;;;;;;;0.80;98.55;100463.41;5055798;28;20032;-77
2023/01/17 11:39:50;;;;;;;8.27;6.00;;;;;;;0.83;98.14;100465.81;5054410;28;20278;-76
2023/01/17 11:43:09;;;;;;;7.77;6.17;;;;;;;0.83;97.97;100457.94;5054646;28;20274;-76
2023/01/17 11:45:35;;;;;;;7.10;6.07;;;;;;;0.82;97.72;100464.13;4954844;28;20407;-78
2023/01/17 11:48:22;;;;;;;8.27;5.90;;;;;;;0.79;97.29;100448.63;5047120;28;20271;-79
2023/01/17 11:50:56;;;;;;;6.17;5.10;;;;;;;0.74;97.83;100439.41;5054274;28;20029;-76
2023/01/17 11:53:30;;;;;;;8.17;5.87;;;;;;;0.83;97.70;100463.19;5055111;28;20313;-75
2023/01/17 11:56:10;;;;;;;7.53;5.60;;;;;;;0.81;97.66;100438.88;5055674;28;20270;-76
2023/01/17 11:58:40;;;;;;;9.50;6.47;;;;;;;0.72;97.68;100413.31;5054969;28;20260;-77
2023/01/17 12:01:16;;;;;;;8.37;5.73;;;;;;;0.93;97.71;100459.00;5055198;28;21027;-75
2023/01/17 12:04:09;;;;;;;7.53;5.70;;;;;;;0.91;97.48;100445.16;5055325;28;20602;-75
2023/01/17 12:07:03;;;;;;;6.83;5.87;;;;;;;0.82;97.36;100456.28;5054012;28;20287;-76
2023/01/17 12:09:41;;;;;;;6.77;5.43;;;;;;;0.72;97.01;100444.78;5055997;28;20270;-76
2023/01/17 12:15:39;;;;;;;6.43;5.15;;;;;;;0.70;98.20;100446.66;5066093;28;20033;-76
2023/01/17 12:18:26;;;;;;;6.77;4.73;;;;;;;0.71;98.88;100443.09;5054720;28;20075;-77
2023/01/17 12:21:04;;;;;;;7.97;5.40;;;;;;;0.51;97.72;100405.16;5064922;28;20244;-76
2023/01/17 12:23:41;;;;;;;6.40;4.93;;;;;;;0.67;97.62;100431.16;5042058;28;20643;-76
2023/01/17 12:34:11;;;;;;;7.57;5.47;;;;;;;0.40;98.83;100415.56;5076902;23;20303;-78
2023/01/17 12:36:47;;;;;;;12.53;7.80;;;;;;;0.40;99.30;100406.88;5040137;28;20330;-76
2023/01/17 12:39:17;;;;;;;8.13;6.47;;;;;;;0.46;98.88;100414.31;5041473;28;20248;-78
2023/01/17 12:48:59;;;;;;;8.10;5.40;;;;;;;0.07;98.82;100348.03;5035343;28;20088;-76
2023/01/17 12:51:30;;;;;;;6.40;5.37;;;;;;;0.08;98.33;100360.19;5033826;28;20264;-76
2023/01/17 12:54:37;;;;;;;8.00;5.90;;;;;;;0.38;99.40;100398.28;5033470;28;20268;-77
2023/01/17 12:57:44;;;;;;;7.07;5.80;;;;;;;0.41;98.51;100384.97;5033529;28;20263;-77
2023/01/17 13:00:21;;;;;;;6.07;5.47;;;;;;;0.35;98.56;100388.88;5033923;28;20025;-78
2023/01/17 13:03:26;;;;;;;9.87;5.97;;;;;;;0.22;99.07;100381.00;5033564;28;20260;-79
2023/01/17 13:05:54;;;;;;;6.20;5.60;;;;;;;0.19;99.68;100386.44;5041306;28;20747;-76
2023/01/17 13:08:41;;;;;;;9.82;5.93;;;;;;;0.07;99.53;100361.13;5035343;28;20367;-76
2023/01/17 13:11:42;;;;;;;7.47;5.60;;;;;;;0.19;99.53;100370.75;5035062;28;20033;-76
2023/01/17 13:14:09;;;;;;;6.93;5.70;;;;;;;0.26;99.20;100379.84;5034674;28;20318;-75
2023/01/17 13:16:57;;;;;;;10.47;6.03;;;;;;;0.17;98.71;100379.66;5035150;28;20291;-76
2023/01/17 13:19:27;;;;;;;7.53;5.93;;;;;;;0.09;99.10;100372.31;5035289;28;20747;-78
2023/01/17 13:21:55;;;;;;;6.63;5.27;;;;;;;0.07;99.48;100370.75;5019596;28;20095;-77